sensor_id;sensor_type;location;lat;lon;timestamp;P1;durP1;ratioP1;P2;durP2;ratioP2
18881;SDS011;9573;50.948;11.600;2022-08-03T00:02:14;8.87;;;3.17;;
18881;SDS011;9573;50.948;11.600;2022-08-03T00:04:42;6.53;;;3.20;;
18881;SDS011;9573;50.948;11.600;2022-08-03T00:07:09;6.83;;;3.00;;
18881;SDS011;9573;50.948;11.600;2022-08-03T00:09:36;10.13;;;3.53;;
18881;SDS011;9573;50.948;11.600;2022-08-03T00:12:04;11.43;;;3.33;;
18881;SDS011;9573;50.948;11.600;2022-08-03T00:14:32;9.70;;;3.07;;
18881;SDS011;9573;50.948;11.600;2022-08-03T00:16:59;6.17;;;3.00;;
18881;SDS011;9573;50.948;11.600;2022-08-03T00:19:26;7.93;;;3.40;;
18881;SDS011;9573;50.948;11.600;2022-08-03T00:21:55;9.70;;;3.47;;
18881;SDS011;9573;50.948;11.600;2022-08-03T00:24:22;9.53;;;3.20;;
18881;SDS011;9573;50.948;11.600;2022-08-03T00:26:49;8.50;;;3.07;;
18881;SDS011;9573;50.948;11.600;2022-08-03T00:29:16;4.57;;;3.00;;
18881;SDS011;9573;50.948;11.600;2022-08-03T00:31:43;8.27;;;2.83;;
18881;SDS011;9573;50.948;11.600;2022-08-03T00:34:10;7.00;;;3.03;;
18881;SDS011;9573;50.948;11.600;2022-08-03T00:36:38;4.70;;;2.90;;
18881;SDS011;9573;50.948;11.600;2022-08-03T00:39:07;9.50;;;3.57;;
18881;SDS011;9573;50.948;11.600;2022-08-03T00:41:34;5.87;;;3.13;;
18881;SDS011;9573;50.948;11.600;2022-08-03T00:44:01;6.33;;;3.33;;
18881;SDS011;9573;50.948;11.600;2022-08-03T00:46:29;6.77;;;3.30;;
18881;SDS011;9573;50.948;11.600;2022-08-03T00:48:56;6.73;;;3.33;;
18881;SDS011;9573;50.948;11.600;2022-08-03T00:51:23;7.37;;;3.50;;
18881;SDS011;9573;50.948;11.600;2022-08-03T00:53:51;13.37;;;3.53;;
18881;SDS011;9573;50.948;11.600;2022-08-03T00:56:19;10.60;;;3.33;;
18881;SDS011;9573;50.948;11.600;2022-08-03T00:58:46;7.97;;;3.30;;
18881;SDS011;9573;50.948;11.600;2022-08-03T01:01:13;6.90;;;3.00;;
18881;SDS011;9573;50.948;11.600;2022-08-03T01:03:40;8.90;;;3.50;;
18881;SDS011;9573;50.948;11.600;2022-08-03T01:06:10;4.97;;;3.23;;
18881;SDS011;9573;50.948;11.600;2022-08-03T01:08:43;4.97;;;3.20;;
18881;SDS011;9573;50.948;11.600;2022-08-03T01:11:16;8.87;;;3.50;;
18881;SDS011;9573;50.948;11.600;2022-08-03T01:13:52;8.57;;;3.30;;
18881;SDS011;9573;50.948;11.600;2022-08-03T01:16:30;6.60;;;3.40;;
18881;SDS011;9573;50.948;11.600;2022-08-03T01:19:07;7.37;;;3.53;;
18881;SDS011;9573;50.948;11.600;2022-08-03T01:22:02;6.23;;;3.57;;
18881;SDS011;9573;50.948;11.600;2022-08-03T01:24:58;5.87;;;3.23;;
18881;SDS011;9573;50.948;11.600;2022-08-03T01:27:36;9.53;;;3.57;;
18881;SDS011;9573;50.948;11.600;2022-08-03T01:30:17;8.20;;;3.40;;
18881;SDS011;9573;50.948;11.600;2022-08-03T01:32:45;8.67;;;3.33;;
18881;SDS011;9573;50.948;11.600;2022-08-03T01:35:21;7.43;;;3.57;;
18881;SDS011;9573;50.948;11.600;2022-08-03T01:38:06;7.03;;;3.40;;
18881;SDS011;9573;50.948;11.600;2022-08-03T01:40:39;6.07;;;3.50;;
18881;SDS011;9573;50.948;11.600;2022-08-03T01:43:09;7.23;;;3.60;;
18881;SDS011;9573;50.948;11.600;2022-08-03T01:45:42;7.30;;;3.60;;
18881;SDS011;9573;50.948;11.600;2022-08-03T01:48:09;7.20;;;4.00;;
18881;SDS011;9573;50.948;11.600;2022-08-03T01:50:41;9.57;;;3.70;;
18881;SDS011;9573;50.948;11.600;2022-08-03T01:53:08;7.67;;;4.10;;
18881;SDS011;9573;50.948;11.600;2022-08-03T01:55:39;9.93;;;3.90;;
18881;SDS011;9573;50.948;11.600;2022-08-03T01:58:08;7.50;;;3.63;;
18881;SDS011;9573;50.948;11.600;2022-08-03T02:00:36;7.97;;;3.73;;
18881;SDS011;9573;50.948;11.600;2022-08-03T02:03:07;6.57;;;3.63;;
18881;SDS011;9573;50.948;11.600;2022-08-03T02:05:38;8.70;;;3.77;;
18881;SDS011;9573;50.948;11.600;2022-08-03T02:08:06;9.43;;;3.97;;
18881;SDS011;9573;50.948;11.600;2022-08-03T02:10:38;10.47;;;4.03;;
18881;SDS011;9573;50.948;11.600;2022-08-03T02:13:08;9.63;;;4.00;;
18881;SDS011;9573;50.948;11.600;2022-08-03T02:15:36;7.67;;;4.00;;
18881;SDS011;9573;50.948;11.600;2022-08-03T02:18:04;10.27;;;4.00;;
18881;SDS011;9573;50.948;11.600;2022-08-03T02:20:36;8.07;;;4.20;;
18881;SDS011;9573;50.948;11.600;2022-08-03T02:23:04;8.10;;;4.20;;
18881;SDS011;9573;50.948;11.600;2022-08-03T02:25:32;9.97;;;4.10;;
18881;SDS011;9573;50.948;11.600;2022-08-03T02:28:06;7.20;;;3.60;;
18881;SDS011;9573;50.948;11.600;2022-08-03T02:30:37;10.90;;;4.60;;
18881;SDS011;9573;50.948;11.600;2022-08-03T02:33:10;11.10;;;5.80;;
18881;SDS011;9573;50.948;11.600;2022-08-03T02:35:43;10.70;;;4.27;;
18881;SDS011;9573;50.948;11.600;2022-08-03T02:38:12;10.67;;;4.67;;
18881;SDS011;9573;50.948;11.600;2022-08-03T02:40:40;8.93;;;4.10;;
18881;SDS011;9573;50.948;11.600;2022-08-03T02:43:10;9.40;;;4.30;;
18881;SDS011;9573;50.948;11.600;2022-08-03T02:45:44;7.67;;;4.13;;
18881;SDS011;9573;50.948;11.600;2022-08-03T02:48:16;9.70;;;4.63;;
18881;SDS011;9573;50.948;11.600;2022-08-03T02:50:47;10.77;;;4.20;;
18881;SDS011;9573;50.948;11.600;2022-08-03T02:53:17;7.57;;;4.17;;
18881;SDS011;9573;50.948;11.600;2022-08-03T02:55:46;10.50;;;4.00;;
18881;SDS011;9573;50.948;11.600;2022-08-03T02:58:16;10.00;;;4.33;;
18881;SDS011;9573;50.948;11.600;2022-08-03T03:00:46;9.70;;;4.30;;
18881;SDS011;9573;50.948;11.600;2022-08-03T03:03:18;8.57;;;4.10;;
18881;SDS011;9573;50.948;11.600;2022-08-03T03:05:47;9.13;;;4.50;;
18881;SDS011;9573;50.948;11.600;2022-08-03T03:08:16;9.10;;;4.57;;
18881;SDS011;9573;50.948;11.600;2022-08-03T03:10:46;13.10;;;4.67;;
18881;SDS011;9573;50.948;11.600;2022-08-03T03:13:14;11.40;;;4.90;;
18881;SDS011;9573;50.948;11.600;2022-08-03T03:15:42;8.03;;;4.30;;
18881;SDS011;9573;50.948;11.600;2022-08-03T03:18:12;9.93;;;4.80;;
18881;SDS011;9573;50.948;11.600;2022-08-03T03:20:43;12.73;;;4.77;;
18881;SDS011;9573;50.948;11.600;2022-08-03T03:23:11;10.50;;;4.80;;
18881;SDS011;9573;50.948;11.600;2022-08-03T03:25:39;13.40;;;4.93;;
18881;SDS011;9573;50.948;11.600;2022-08-03T03:28:08;14.60;;;4.93;;
18881;SDS011;9573;50.948;11.600;2022-08-03T03:30:36;11.70;;;5.13;;
18881;SDS011;9573;50.948;11.600;2022-08-03T03:33:03;9.10;;;4.60;;
18881;SDS011;9573;50.948;11.600;2022-08-03T03:35:30;13.73;;;4.90;;
18881;SDS011;9573;50.948;11.600;2022-08-03T03:38:01;10.33;;;5.10;;
18881;SDS011;9573;50.948;11.600;2022-08-03T03:40:28;14.17;;;5.13;;
18881;SDS011;9573;50.948;11.600;2022-08-03T03:42:55;12.10;;;5.10;;
18881;SDS011;9573;50.948;11.600;2022-08-03T03:45:22;12.23;;;5.40;;
18881;SDS011;9573;50.948;11.600;2022-08-03T03:47:50;13.43;;;5.20;;
18881;SDS011;9573;50.948;11.600;2022-08-03T03:50:17;10.50;;;5.00;;
18881;SDS011;9573;50.948;11.600;2022-08-03T03:52:45;11.77;;;4.90;;
18881;SDS011;9573;50.948;11.600;2022-08-03T03:55:15;10.80;;;5.10;;
18881;SDS011;9573;50.948;11.600;2022-08-03T03:57:43;10.97;;;5.17;;
18881;SDS011;9573;50.948;11.600;2022-08-03T04:00:11;13.83;;;5.27;;
18881;SDS011;9573;50.948;11.600;2022-08-03T04:02:40;13.13;;;5.33;;
18881;SDS011;9573;50.948;11.600;2022-08-03T04:05:07;14.87;;;5.67;;
18881;SDS011;9573;50.948;11.600;2022-08-03T04:07:55;14.50;;;5.60;;
18881;SDS011;9573;50.948;11.600;2022-08-03T04:10:45;11.57;;;5.30;;
18881;SDS011;9573;50.948;11.600;2022-08-03T04:13:26;11.90;;;5.30;;
18881;SDS011;9573;50.948;11.600;2022-08-03T04:15:57;11.30;;;5.17;;
18881;SDS011;9573;50.948;11.600;2022-08-03T04:18:25;21.53;;;5.90;;
18881;SDS011;9573;50.948;11.600;2022-08-03T04:20:55;9.90;;;5.43;;
18881;SDS011;9573;50.948;11.600;2022-08-03T04:23:27;10.73;;;5.20;;
18881;SDS011;9573;50.948;11.600;2022-08-03T04:26:01;18.07;;;5.70;;
18881;SDS011;9573;50.948;11.600;2022-08-03T04:28:29;12.30;;;5.43;;
18881;SDS011;9573;50.948;11.600;2022-08-03T04:30:58;10.73;;;5.00;;
18881;SDS011;9573;50.948;11.600;2022-08-03T04:33:26;11.23;;;5.00;;
18881;SDS011;9573;50.948;11.600;2022-08-03T04:35:57;13.00;;;5.20;;
18881;SDS011;9573;50.948;11.600;2022-08-03T04:38:26;12.77;;;4.93;;
18881;SDS011;9573;50.948;11.600;2022-08-03T04:40:57;10.70;;;4.97;;
18881;SDS011;9573;50.948;11.600;2022-08-03T04:43:26;18.67;;;5.43;;
18881;SDS011;9573;50.948;11.600;2022-08-03T04:45:54;10.37;;;4.43;;
18881;SDS011;9573;50.948;11.600;2022-08-03T04:48:22;12.33;;;4.17;;
18881;SDS011;9573;50.948;11.600;2022-08-03T04:50:50;8.90;;;4.60;;
18881;SDS011;9573;50.948;11.600;2022-08-03T04:53:18;7.07;;;4.17;;
18881;SDS011;9573;50.948;11.600;2022-08-03T04:55:46;10.13;;;4.50;;
18881;SDS011;9573;50.948;11.600;2022-08-03T04:58:13;6.23;;;3.80;;
18881;SDS011;9573;50.948;11.600;2022-08-03T05:00:42;9.10;;;4.00;;
18881;SDS011;9573;50.948;11.600;2022-08-03T05:03:09;8.17;;;4.10;;
18881;SDS011;9573;50.948;11.600;2022-08-03T05:05:36;10.73;;;4.53;;
18881;SDS011;9573;50.948;11.600;2022-08-03T05:08:04;8.83;;;4.03;;
18881;SDS011;9573;50.948;11.600;2022-08-03T05:10:31;10.13;;;4.10;;
18881;SDS011;9573;50.948;11.600;2022-08-03T05:12:58;10.03;;;4.27;;
18881;SDS011;9573;50.948;11.600;2022-08-03T05:15:25;7.70;;;4.10;;
18881;SDS011;9573;50.948;11.600;2022-08-03T05:17:54;7.60;;;3.70;;
18881;SDS011;9573;50.948;11.600;2022-08-03T05:20:21;6.10;;;3.60;;
18881;SDS011;9573;50.948;11.600;2022-08-03T05:22:48;9.30;;;3.90;;
18881;SDS011;9573;50.948;11.600;2022-08-03T05:25:15;6.83;;;3.60;;
18881;SDS011;9573;50.948;11.600;2022-08-03T05:27:43;9.13;;;3.67;;
18881;SDS011;9573;50.948;11.600;2022-08-03T05:30:10;11.80;;;3.97;;
18881;SDS011;9573;50.948;11.600;2022-08-03T05:32:38;7.67;;;3.70;;
18881;SDS011;9573;50.948;11.600;2022-08-03T05:35:07;11.10;;;3.70;;
18881;SDS011;9573;50.948;11.600;2022-08-03T05:37:34;7.90;;;3.80;;
18881;SDS011;9573;50.948;11.600;2022-08-03T05:40:02;8.10;;;3.70;;
18881;SDS011;9573;50.948;11.600;2022-08-03T05:42:30;8.50;;;3.70;;
18881;SDS011;9573;50.948;11.600;2022-08-03T05:44:57;6.88;;;3.58;;
18881;SDS011;9573;50.948;11.600;2022-08-03T05:47:24;8.30;;;3.80;;
18881;SDS011;9573;50.948;11.600;2022-08-03T05:49:51;11.18;;;4.30;;
18881;SDS011;9573;50.948;11.600;2022-08-03T05:52:20;8.25;;;3.72;;
18881;SDS011;9573;50.948;11.600;2022-08-03T05:54:47;10.43;;;4.10;;
18881;SDS011;9573;50.948;11.600;2022-08-03T05:57:14;6.70;;;3.50;;
18881;SDS011;9573;50.948;11.600;2022-08-03T05:59:41;8.93;;;3.90;;
18881;SDS011;9573;50.948;11.600;2022-08-03T06:02:08;12.40;;;3.42;;
18881;SDS011;9573;50.948;11.600;2022-08-03T06:04:35;9.27;;;3.42;;
18881;SDS011;9573;50.948;11.600;2022-08-03T06:07:03;8.75;;;3.90;;
18881;SDS011;9573;50.948;11.600;2022-08-03T06:09:31;9.85;;;3.60;;
18881;SDS011;9573;50.948;11.600;2022-08-03T06:11:58;11.00;;;4.05;;
18881;SDS011;9573;50.948;11.600;2022-08-03T06:14:25;10.02;;;3.65;;
18881;SDS011;9573;50.948;11.600;2022-08-03T06:16:52;11.88;;;3.60;;
18881;SDS011;9573;50.948;11.600;2022-08-03T06:19:20;10.48;;;3.40;;
18881;SDS011;9573;50.948;11.600;2022-08-03T06:21:48;7.07;;;3.50;;
18881;SDS011;9573;50.948;11.600;2022-08-03T06:24:16;8.10;;;3.63;;
18881;SDS011;9573;50.948;11.600;2022-08-03T06:26:46;7.93;;;3.80;;
18881;SDS011;9573;50.948;11.600;2022-08-03T06:29:13;8.35;;;3.53;;
18881;SDS011;9573;50.948;11.600;2022-08-03T06:31:40;8.05;;;3.40;;
18881;SDS011;9573;50.948;11.600;2022-08-03T06:34:07;8.40;;;3.55;;
18881;SDS011;9573;50.948;11.600;2022-08-03T06:36:34;10.38;;;3.55;;
18881;SDS011;9573;50.948;11.600;2022-08-03T06:39:02;9.70;;;3.53;;
18881;SDS011;9573;50.948;11.600;2022-08-03T06:41:29;16.52;;;4.07;;
18881;SDS011;9573;50.948;11.600;2022-08-03T06:43:58;10.50;;;3.60;;
18881;SDS011;9573;50.948;11.600;2022-08-03T06:46:25;10.75;;;3.72;;
18881;SDS011;9573;50.948;11.600;2022-08-03T06:48:52;10.20;;;3.58;;
18881;SDS011;9573;50.948;11.600;2022-08-03T06:51:20;9.30;;;3.22;;
18881;SDS011;9573;50.948;11.600;2022-08-03T06:53:48;15.32;;;3.80;;
18881;SDS011;9573;50.948;11.600;2022-08-03T06:56:15;19.30;;;4.00;;
18881;SDS011;9573;50.948;11.600;2022-08-03T06:58:44;10.32;;;3.30;;
18881;SDS011;9573;50.948;11.600;2022-08-03T07:01:14;12.43;;;3.97;;
18881;SDS011;9573;50.948;11.600;2022-08-03T07:03:41;14.18;;;3.58;;
18881;SDS011;9573;50.948;11.600;2022-08-03T07:06:08;10.60;;;3.28;;
18881;SDS011;9573;50.948;11.600;2022-08-03T07:08:35;9.48;;;3.38;;
18881;SDS011;9573;50.948;11.600;2022-08-03T07:11:02;8.50;;;3.25;;
18881;SDS011;9573;50.948;11.600;2022-08-03T07:13:30;9.63;;;3.50;;
18881;SDS011;9573;50.948;11.600;2022-08-03T07:15:57;12.85;;;3.75;;
18881;SDS011;9573;50.948;11.600;2022-08-03T07:18:25;7.38;;;3.35;;
18881;SDS011;9573;50.948;11.600;2022-08-03T07:20:52;10.05;;;3.13;;
18881;SDS011;9573;50.948;11.600;2022-08-03T07:23:19;8.00;;;3.15;;
18881;SDS011;9573;50.948;11.600;2022-08-03T07:25:47;20.55;;;3.75;;
18881;SDS011;9573;50.948;11.600;2022-08-03T07:28:14;10.07;;;3.05;;
18881;SDS011;9573;50.948;11.600;2022-08-03T07:30:42;14.02;;;3.45;;
18881;SDS011;9573;50.948;11.600;2022-08-03T07:33:09;12.23;;;3.70;;
18881;SDS011;9573;50.948;11.600;2022-08-03T07:35:38;15.10;;;3.40;;
18881;SDS011;9573;50.948;11.600;2022-08-03T07:38:05;13.90;;;3.63;;
18881;SDS011;9573;50.948;11.600;2022-08-03T07:40:32;16.67;;;3.72;;
18881;SDS011;9573;50.948;11.600;2022-08-03T07:42:59;13.55;;;3.67;;
18881;SDS011;9573;50.948;11.600;2022-08-03T07:45:28;14.02;;;3.03;;
18881;SDS011;9573;50.948;11.600;2022-08-03T07:47:55;15.60;;;3.40;;
18881;SDS011;9573;50.948;11.600;2022-08-03T07:50:23;16.33;;;3.78;;
18881;SDS011;9573;50.948;11.600;2022-08-03T07:52:51;10.88;;;3.15;;
18881;SDS011;9573;50.948;11.600;2022-08-03T07:55:20;10.60;;;3.20;;
18881;SDS011;9573;50.948;11.600;2022-08-03T07:58:02;7.47;;;3.20;;
18881;SDS011;9573;50.948;11.600;2022-08-03T08:00:33;16.80;;;3.30;;
18881;SDS011;9573;50.948;11.600;2022-08-03T08:03:01;11.27;;;3.15;;
18881;SDS011;9573;50.948;11.600;2022-08-03T08:05:28;13.52;;;3.30;;
18881;SDS011;9573;50.948;11.600;2022-08-03T08:07:57;9.32;;;3.30;;
18881;SDS011;9573;50.948;11.600;2022-08-03T08:10:25;14.38;;;3.33;;
18881;SDS011;9573;50.948;11.600;2022-08-03T08:12:53;6.30;;;2.85;;
18881;SDS011;9573;50.948;11.600;2022-08-03T08:15:21;14.70;;;3.33;;
18881;SDS011;9573;50.948;11.600;2022-08-03T08:17:49;10.50;;;3.00;;
18881;SDS011;9573;50.948;11.600;2022-08-03T08:20:19;5.75;;;2.90;;
18881;SDS011;9573;50.948;11.600;2022-08-03T08:22:48;10.15;;;2.80;;
18881;SDS011;9573;50.948;11.600;2022-08-03T08:25:17;10.88;;;3.03;;
18881;SDS011;9573;50.948;11.600;2022-08-03T08:27:45;5.22;;;2.83;;
18881;SDS011;9573;50.948;11.600;2022-08-03T08:30:14;8.48;;;2.90;;
18881;SDS011;9573;50.948;11.600;2022-08-03T08:32:44;9.48;;;2.90;;
18881;SDS011;9573;50.948;11.600;2022-08-03T08:35:11;7.82;;;2.90;;
18881;SDS011;9573;50.948;11.600;2022-08-03T08:37:39;8.43;;;2.85;;
18881;SDS011;9573;50.948;11.600;2022-08-03T08:40:07;7.32;;;2.60;;
18881;SDS011;9573;50.948;11.600;2022-08-03T08:42:38;5.38;;;2.90;;
18881;SDS011;9573;50.948;11.600;2022-08-03T08:45:09;4.18;;;2.53;;
18881;SDS011;9573;50.948;11.600;2022-08-03T08:47:39;7.53;;;2.95;;
18881;SDS011;9573;50.948;11.600;2022-08-03T08:50:11;5.90;;;2.70;;
18881;SDS011;9573;50.948;11.600;2022-08-03T08:52:40;5.40;;;2.47;;
18881;SDS011;9573;50.948;11.600;2022-08-03T08:55:12;5.57;;;2.30;;
18881;SDS011;9573;50.948;11.600;2022-08-03T08:57:49;3.47;;;2.50;;
18881;SDS011;9573;50.948;11.600;2022-08-03T09:00:20;6.45;;;2.70;;
18881;SDS011;9573;50.948;11.600;2022-08-03T09:02:47;9.05;;;2.83;;
18881;SDS011;9573;50.948;11.600;2022-08-03T09:05:15;16.65;;;3.35;;
18881;SDS011;9573;50.948;11.600;2022-08-03T09:07:44;4.53;;;2.50;;
18881;SDS011;9573;50.948;11.600;2022-08-03T09:10:13;3.40;;;2.20;;
18881;SDS011;9573;50.948;11.600;2022-08-03T09:12:44;6.85;;;2.67;;
18881;SDS011;9573;50.948;11.600;2022-08-03T09:15:18;9.10;;;2.92;;
18881;SDS011;9573;50.948;11.600;2022-08-03T09:17:52;7.75;;;2.72;;
18881;SDS011;9573;50.948;11.600;2022-08-03T09:20:21;3.13;;;2.50;;
18881;SDS011;9573;50.948;11.600;2022-08-03T09:22:52;4.97;;;2.60;;
18881;SDS011;9573;50.948;11.600;2022-08-03T09:25:26;6.00;;;2.38;;
18881;SDS011;9573;50.948;11.600;2022-08-03T09:28:03;3.22;;;2.22;;
18881;SDS011;9573;50.948;11.600;2022-08-03T09:30:37;4.35;;;2.00;;
18881;SDS011;9573;50.948;11.600;2022-08-03T09:33:06;3.67;;;2.42;;
18881;SDS011;9573;50.948;11.600;2022-08-03T09:35:44;6.22;;;2.30;;
18881;SDS011;9573;50.948;11.600;2022-08-03T09:38:15;4.15;;;2.20;;
18881;SDS011;9573;50.948;11.600;2022-08-03T09:40:48;2.53;;;2.30;;
18881;SDS011;9573;50.948;11.600;2022-08-03T09:43:15;4.55;;;2.35;;
18881;SDS011;9573;50.948;11.600;2022-08-03T09:45:45;2.67;;;2.20;;
18881;SDS011;9573;50.948;11.600;2022-08-03T09:48:22;4.10;;;2.33;;
18881;SDS011;9573;50.948;11.600;2022-08-03T09:50:51;3.63;;;2.40;;
18881;SDS011;9573;50.948;11.600;2022-08-03T09:53:19;4.13;;;2.40;;
18881;SDS011;9573;50.948;11.600;2022-08-03T09:55:49;4.53;;;2.40;;
18881;SDS011;9573;50.948;11.600;2022-08-03T09:58:19;4.57;;;2.42;;
18881;SDS011;9573;50.948;11.600;2022-08-03T10:00:52;6.18;;;2.40;;
18881;SDS011;9573;50.948;11.600;2022-08-03T10:03:23;6.50;;;2.28;;
18881;SDS011;9573;50.948;11.600;2022-08-03T10:05:53;4.85;;;2.33;;
18881;SDS011;9573;50.948;11.600;2022-08-03T10:08:21;5.10;;;2.40;;
18881;SDS011;9573;50.948;11.600;2022-08-03T10:10:49;3.20;;;2.25;;
18881;SDS011;9573;50.948;11.600;2022-08-03T10:13:19;3.25;;;2.22;;
18881;SDS011;9573;50.948;11.600;2022-08-03T10:15:47;7.82;;;2.50;;
18881;SDS011;9573;50.948;11.600;2022-08-03T10:18:16;2.80;;;2.20;;
18881;SDS011;9573;50.948;11.600;2022-08-03T10:20:45;2.65;;;2.10;;
18881;SDS011;9573;50.948;11.600;2022-08-03T10:23:17;4.85;;;2.50;;
18881;SDS011;9573;50.948;11.600;2022-08-03T10:25:46;5.07;;;2.28;;
18881;SDS011;9573;50.948;11.600;2022-08-03T10:28:16;3.72;;;2.35;;
18881;SDS011;9573;50.948;11.600;2022-08-03T10:30:46;4.53;;;2.40;;
18881;SDS011;9573;50.948;11.600;2022-08-03T10:33:19;5.65;;;2.58;;
18881;SDS011;9573;50.948;11.600;2022-08-03T10:35:51;7.43;;;2.50;;
18881;SDS011;9573;50.948;11.600;2022-08-03T10:38:22;5.95;;;2.13;;
18881;SDS011;9573;50.948;11.600;2022-08-03T10:40:55;4.50;;;2.40;;
18881;SDS011;9573;50.948;11.600;2022-08-03T10:43:24;7.25;;;2.40;;
18881;SDS011;9573;50.948;11.600;2022-08-03T10:45:58;5.85;;;2.40;;
18881;SDS011;9573;50.948;11.600;2022-08-03T10:48:29;4.32;;;2.45;;
18881;SDS011;9573;50.948;11.600;2022-08-03T10:50:59;3.25;;;2.30;;
18881;SDS011;9573;50.948;11.600;2022-08-03T10:53:33;3.50;;;2.30;;
18881;SDS011;9573;50.948;11.600;2022-08-03T10:56:02;5.85;;;2.30;;
18881;SDS011;9573;50.948;11.600;2022-08-03T10:58:49;2.80;;;2.45;;
18881;SDS011;9573;50.948;11.600;2022-08-03T11:01:17;4.70;;;2.50;;
18881;SDS011;9573;50.948;11.600;2022-08-03T11:04:17;3.92;;;2.40;;
18881;SDS011;9573;50.948;11.600;2022-08-03T11:06:46;5.13;;;2.35;;
18881;SDS011;9573;50.948;11.600;2022-08-03T11:09:14;5.28;;;2.60;;
18881;SDS011;9573;50.948;11.600;2022-08-03T11:11:43;3.88;;;2.33;;
18881;SDS011;9573;50.948;11.600;2022-08-03T11:14:15;10.45;;;2.60;;
18881;SDS011;9573;50.948;11.600;2022-08-03T11:16:45;4.35;;;2.25;;
18881;SDS011;9573;50.948;11.600;2022-08-03T11:19:18;3.65;;;2.50;;
18881;SDS011;9573;50.948;11.600;2022-08-03T11:21:56;3.95;;;2.35;;
18881;SDS011;9573;50.948;11.600;2022-08-03T11:27:24;3.33;;;2.38;;
18881;SDS011;9573;50.948;11.600;2022-08-03T11:30:01;2.83;;;2.17;;
18881;SDS011;9573;50.948;11.600;2022-08-03T11:32:51;3.38;;;2.45;;
18881;SDS011;9573;50.948;11.600;2022-08-03T11:35:24;7.95;;;2.70;;
18881;SDS011;9573;50.948;11.600;2022-08-03T11:38:01;6.43;;;2.42;;
18881;SDS011;9573;50.948;11.600;2022-08-03T11:40:32;4.45;;;2.40;;
18881;SDS011;9573;50.948;11.600;2022-08-03T11:43:01;10.35;;;2.40;;
18881;SDS011;9573;50.948;11.600;2022-08-03T11:45:29;3.63;;;2.40;;
18881;SDS011;9573;50.948;11.600;2022-08-03T11:47:56;4.60;;;2.35;;
18881;SDS011;9573;50.948;11.600;2022-08-03T11:50:42;3.17;;;2.50;;
18881;SDS011;9573;50.948;11.600;2022-08-03T11:53:13;3.60;;;2.50;;
18881;SDS011;9573;50.948;11.600;2022-08-03T11:55:42;2.83;;;2.22;;
18881;SDS011;9573;50.948;11.600;2022-08-03T11:58:19;4.63;;;2.55;;
18881;SDS011;9573;50.948;11.600;2022-08-03T12:00:48;4.43;;;2.40;;
18881;SDS011;9573;50.948;11.600;2022-08-03T12:03:16;6.38;;;2.22;;
18881;SDS011;9573;50.948;11.600;2022-08-03T12:05:47;2.83;;;2.58;;
18881;SDS011;9573;50.948;11.600;2022-08-03T12:08:17;4.22;;;2.40;;
18881;SDS011;9573;50.948;11.600;2022-08-03T12:10:59;4.35;;;2.67;;
18881;SDS011;9573;50.948;11.600;2022-08-03T12:13:39;3.58;;;2.50;;
18881;SDS011;9573;50.948;11.600;2022-08-03T12:16:09;6.28;;;2.50;;
18881;SDS011;9573;50.948;11.600;2022-08-03T12:18:42;6.60;;;2.35;;
18881;SDS011;9573;50.948;11.600;2022-08-03T12:21:11;10.90;;;2.45;;
18881;SDS011;9573;50.948;11.600;2022-08-03T12:23:38;7.95;;;2.60;;
18881;SDS011;9573;50.948;11.600;2022-08-03T12:26:06;2.95;;;2.60;;
18881;SDS011;9573;50.948;11.600;2022-08-03T12:28:35;3.47;;;2.55;;
18881;SDS011;9573;50.948;11.600;2022-08-03T12:31:04;4.07;;;2.60;;
18881;SDS011;9573;50.948;11.600;2022-08-03T12:36:23;4.25;;;2.35;;
18881;SDS011;9573;50.948;11.600;2022-08-03T12:38:55;2.50;;;2.30;;
18881;SDS011;9573;50.948;11.600;2022-08-03T12:41:28;4.90;;;2.38;;
18881;SDS011;9573;50.948;11.600;2022-08-03T12:43:57;4.65;;;2.45;;
18881;SDS011;9573;50.948;11.600;2022-08-03T12:46:29;7.13;;;2.45;;
18881;SDS011;9573;50.948;11.600;2022-08-03T12:48:59;7.45;;;2.47;;
18881;SDS011;9573;50.948;11.600;2022-08-03T12:51:34;3.72;;;2.67;;
18881;SDS011;9573;50.948;11.600;2022-08-03T12:54:03;11.40;;;2.95;;
18881;SDS011;9573;50.948;11.600;2022-08-03T12:56:31;5.10;;;2.40;;
18881;SDS011;9573;50.948;11.600;2022-08-03T12:58:59;5.43;;;2.42;;
18881;SDS011;9573;50.948;11.600;2022-08-03T13:01:28;4.93;;;2.50;;
18881;SDS011;9573;50.948;11.600;2022-08-03T13:04:02;3.08;;;2.38;;
18881;SDS011;9573;50.948;11.600;2022-08-03T13:06:30;5.35;;;2.55;;
18881;SDS011;9573;50.948;11.600;2022-08-03T13:09:02;6.78;;;2.40;;
18881;SDS011;9573;50.948;11.600;2022-08-03T13:11:32;4.63;;;2.50;;
18881;SDS011;9573;50.948;11.600;2022-08-03T13:13:59;6.50;;;2.40;;
18881;SDS011;9573;50.948;11.600;2022-08-03T13:16:28;5.00;;;2.35;;
18881;SDS011;9573;50.948;11.600;2022-08-03T13:18:56;5.10;;;2.60;;
18881;SDS011;9573;50.948;11.600;2022-08-03T13:21:23;6.57;;;2.58;;
18881;SDS011;9573;50.948;11.600;2022-08-03T13:23:50;4.95;;;2.40;;
18881;SDS011;9573;50.948;11.600;2022-08-03T13:26:18;5.45;;;2.50;;
18881;SDS011;9573;50.948;11.600;2022-08-03T13:28:45;5.50;;;2.47;;
18881;SDS011;9573;50.948;11.600;2022-08-03T13:31:12;5.88;;;2.40;;
18881;SDS011;9573;50.948;11.600;2022-08-03T13:33:40;5.68;;;2.60;;
18881;SDS011;9573;50.948;11.600;2022-08-03T13:36:07;6.97;;;2.60;;
18881;SDS011;9573;50.948;11.600;2022-08-03T13:38:34;5.85;;;2.55;;
18881;SDS011;9573;50.948;11.600;2022-08-03T13:41:01;4.93;;;2.40;;
18881;SDS011;9573;50.948;11.600;2022-08-03T13:43:30;3.42;;;2.40;;
18881;SDS011;9573;50.948;11.600;2022-08-03T13:45:57;6.70;;;2.80;;
18881;SDS011;9573;50.948;11.600;2022-08-03T13:48:24;5.70;;;2.58;;
18881;SDS011;9573;50.948;11.600;2022-08-03T13:50:51;4.85;;;2.40;;
18881;SDS011;9573;50.948;11.600;2022-08-03T13:53:19;3.92;;;2.60;;
18881;SDS011;9573;50.948;11.600;2022-08-03T13:55:46;11.00;;;3.15;;
18881;SDS011;9573;50.948;11.600;2022-08-03T13:58:13;5.30;;;2.72;;
18881;SDS011;9573;50.948;11.600;2022-08-03T14:00:42;4.65;;;2.70;;
18881;SDS011;9573;50.948;11.600;2022-08-03T14:03:09;4.30;;;2.42;;
18881;SDS011;9573;50.948;11.600;2022-08-03T14:05:36;5.68;;;2.53;;
18881;SDS011;9573;50.948;11.600;2022-08-03T14:08:07;3.72;;;2.40;;
18881;SDS011;9573;50.948;11.600;2022-08-03T14:10:36;7.68;;;2.53;;
18881;SDS011;9573;50.948;11.600;2022-08-03T14:13:06;8.20;;;2.70;;
18881;SDS011;9573;50.948;11.600;2022-08-03T14:15:34;9.32;;;3.42;;
18881;SDS011;9573;50.948;11.600;2022-08-03T14:18:02;4.10;;;2.60;;
18881;SDS011;9573;50.948;11.600;2022-08-03T14:20:29;4.85;;;2.55;;
18881;SDS011;9573;50.948;11.600;2022-08-03T14:22:57;3.63;;;2.50;;
18881;SDS011;9573;50.948;11.600;2022-08-03T14:25:24;5.07;;;2.50;;
18881;SDS011;9573;50.948;11.600;2022-08-03T14:27:51;4.85;;;2.60;;
18881;SDS011;9573;50.948;11.600;2022-08-03T14:30:18;4.43;;;2.50;;
18881;SDS011;9573;50.948;11.600;2022-08-03T14:32:46;5.13;;;2.50;;
18881;SDS011;9573;50.948;11.600;2022-08-03T14:35:14;4.45;;;2.38;;
18881;SDS011;9573;50.948;11.600;2022-08-03T14:37:43;9.50;;;2.53;;
18881;SDS011;9573;50.948;11.600;2022-08-03T14:40:10;3.63;;;2.45;;
18881;SDS011;9573;50.948;11.600;2022-08-03T14:42:38;10.15;;;2.55;;
18881;SDS011;9573;50.948;11.600;2022-08-03T14:45:05;5.95;;;2.67;;
18881;SDS011;9573;50.948;11.600;2022-08-03T14:47:33;6.32;;;2.60;;
18881;SDS011;9573;50.948;11.600;2022-08-03T14:50:01;4.32;;;2.60;;
18881;SDS011;9573;50.948;11.600;2022-08-03T14:52:31;5.68;;;2.60;;
18881;SDS011;9573;50.948;11.600;2022-08-03T14:54:58;4.55;;;2.42;;
18881;SDS011;9573;50.948;11.600;2022-08-03T14:57:26;17.15;;;3.05;;
18881;SDS011;9573;50.948;11.600;2022-08-03T14:59:53;5.28;;;2.35;;
18881;SDS011;9573;50.948;11.600;2022-08-03T15:02:20;7.68;;;2.40;;
18881;SDS011;9573;50.948;11.600;2022-08-03T15:04:47;5.60;;;2.28;;